General Aviation Weather

Text Reports

Enter one or more of the following location identifiers separated by a space:

Zip Code, Four-Character ICAO or Three-Character IATA airport codes.

METAR - Aviation Routine Weather Report
KSGH - Springfield, Ohio
Updated at 7:56 PM GMT on September 01, 2015 (3:56 PM EDT):
METAR KSGH 011956Z AUTO 23006KT 10SM CLR 30/22 A3013 RMK AO2 T03000222 SLP193
TAF - Terminal Area Forecast
KSGH - Springfield, Ohio
Updated at 7:56 PM GMT on September 01, 2015 (3:56 PM EDT):
No TAF is currently available for this location.
Decoded:
No decoded TAF is available.
PIREP - Pilot Weather Report
KSGH - Springfield, Ohio
Updated at 7:56 PM GMT on September 01, 2015 (3:56 PM EDT):
No PIREP is currently available for this location.
AIRMET - Airmens Meteorological Information
KSGH - Springfield, Ohio
Updated at 7:56 PM GMT on September 01, 2015 (3:56 PM EDT):
No AIRMET is currently available for this location.
SIGMET - Significant Meteorological Information
KSGH - Springfield, Ohio
Updated at 7:56 PM GMT on September 01, 2015 (3:56 PM EDT):
No SIGMET is currently available for this location.
NOTAM - Notice to Airmen
KSGH - Springfield, Ohio
Updated at 7:56 PM GMT on September 01, 2015 (3:56 PM EDT):
No NOTAM is currently available for this location.
Forecast Area
KSGH - Springfield, Ohio
Updated at 7:56 PM GMT on September 01, 2015 (3:56 PM EDT):
No NOTAM is currently available for this location.
Aviation Weather Maps